Alder, MT

11:58 AM MDT on July 29, 2015 (GMT -0600)
NonFedAWOS | | Change Station
CLOSE
Current Station
Personal Weather Station
Location: Twin Bridges, MT
Elevation: 4776 ft
Nearby Weather Stations

Elev 4776 ft 45.53 °N, 112.30 °W | Updated 43 minutes ago

Clear
Clear
64 °F
Feels Like 64 °F
N
6
Wind Variable Wind from ESE
Gusts 0.0 mph

Today
High -- | Low -- °F
--% Chance of Precip.
Yesterday
High -- | Low -- °F
Precip. -- in
6:09 AM 8:59 PM
Waxing Gibbous, 96% visible
Pressure 30.24 in
Visibility 10.0 miles
Clouds Clear
Dew Point 39 °F
Humidity 39%
Rainfall in
Snow Depth Not available.
UV 9 out of 12
Pollen 4.50 out of 12
Air Quality Not available.
Flu Activity Not available.
METAR KDLN 291753Z AUTO 00000KT 10SM CLR 19/03 A3035 RMK AO2 SLP240 T01940033 10194 20061 58007

More Conditions Fewer Conditions

Pressure 30.24 in
Visibility 10.0 miles
Clouds Clear
Dew Point 39 °F
Humidity 39%
Rainfall in
Snow Depth Not available.
UV 9 out of 12
Pollen 4.50 out of 12
Air Quality Not available.
Flu Activity Not available.
METAR KDLN 291753Z AUTO 00000KT 10SM CLR 19/03 A3035 RMK AO2 SLP240 T01940033 10194 20061 58007

More Conditions Fewer Conditions

10-Day Weather Forecast

×

Almanac

Astronomy

Jul. 29, 2015 Rise Set
Actual Time
Civil Twilight
Nautical Twilight
Astronomical Twilight
Moon
Length of Visible Light
Length of Day
Tomorrow will be .
, % of the Moon is Illuminated

Today's Extremes

State Highs State Lows

Community

WunderPhotos

Upload Photos

1,842,135 photos uploaded!

WunderBlogs® & News

Nearby

Air Quality

  Air Quality AQ Index Pollutant
Not available.

Snow Depth

Station Depth Elevation

Earthquake Activity

City Distance Mag. Time & Date
Minimum magnitude displayed is 2.5.

Coastal Water Temperatures

Place Temperature

Stations

Nearby Weather Stations

Station Location Temp. Windchill Dew Point Humidity Wind Precip. Elev Updated Type